sensor_id;sensor_type;location;lat;lon;timestamp;P1;durP1;ratioP1;P2;durP2;ratioP2
70169;SDS011;57543;45.442;9.212;2022-09-19T00:00:47;3.47;;;1.25;;
70169;SDS011;57543;45.442;9.212;2022-09-19T00:03:52;4.28;;;1.60;;
70169;SDS011;57543;45.442;9.212;2022-09-19T00:06:59;4.10;;;1.47;;
70169;SDS011;57543;45.442;9.212;2022-09-19T00:10:04;5.53;;;1.73;;
70169;SDS011;57543;45.442;9.212;2022-09-19T00:13:09;4.95;;;1.70;;
70169;SDS011;57543;45.442;9.212;2022-09-19T00:16:20;6.20;;;1.80;;
70169;SDS011;57543;45.442;9.212;2022-09-19T00:19:35;4.57;;;1.48;;
70169;SDS011;57543;45.442;9.212;2022-09-19T00:22:40;4.13;;;1.60;;
70169;SDS011;57543;45.442;9.212;2022-09-19T00:26:04;4.15;;;1.65;;
70169;SDS011;57543;45.442;9.212;2022-09-19T00:29:10;3.53;;;1.45;;
70169;SDS011;57543;45.442;9.212;2022-09-19T00:32:15;3.75;;;1.58;;
70169;SDS011;57543;45.442;9.212;2022-09-19T00:35:19;4.05;;;1.80;;
70169;SDS011;57543;45.442;9.212;2022-09-19T00:38:25;4.10;;;1.63;;
70169;SDS011;57543;45.442;9.212;2022-09-19T00:41:30;6.20;;;1.70;;
70169;SDS011;57543;45.442;9.212;2022-09-19T00:47:42;3.65;;;1.48;;
70169;SDS011;57543;45.442;9.212;2022-09-19T00:50:52;5.57;;;1.63;;
70169;SDS011;57543;45.442;9.212;2022-09-19T00:53:58;3.53;;;1.60;;
70169;SDS011;57543;45.442;9.212;2022-09-19T00:57:08;3.38;;;1.55;;
70169;SDS011;57543;45.442;9.212;2022-09-19T01:00:15;7.00;;;1.60;;
70169;SDS011;57543;45.442;9.212;2022-09-19T01:03:19;6.22;;;1.80;;
70169;SDS011;57543;45.442;9.212;2022-09-19T01:06:38;5.03;;;1.75;;
70169;SDS011;57543;45.442;9.212;2022-09-19T01:13:08;3.88;;;1.40;;
70169;SDS011;57543;45.442;9.212;2022-09-19T01:16:23;6.47;;;1.70;;
70169;SDS011;57543;45.442;9.212;2022-09-19T01:26:09;4.50;;;1.70;;
70169;SDS011;57543;45.442;9.212;2022-09-19T01:29:22;5.72;;;1.35;;
70169;SDS011;57543;45.442;9.212;2022-09-19T01:32:48;7.50;;;1.95;;
70169;SDS011;57543;45.442;9.212;2022-09-19T01:35:56;6.45;;;1.60;;
70169;SDS011;57543;45.442;9.212;2022-09-19T01:39:02;5.55;;;1.58;;
70169;SDS011;57543;45.442;9.212;2022-09-19T01:42:13;5.30;;;1.50;;
70169;SDS011;57543;45.442;9.212;2022-09-19T01:45:21;6.53;;;1.50;;
70169;SDS011;57543;45.442;9.212;2022-09-19T01:48:33;3.10;;;1.20;;
70169;SDS011;57543;45.442;9.212;2022-09-19T01:51:44;4.05;;;1.42;;
70169;SDS011;57543;45.442;9.212;2022-09-19T01:58:28;3.93;;;1.10;;
70169;SDS011;57543;45.442;9.212;2022-09-19T02:01:55;5.43;;;1.60;;
70169;SDS011;57543;45.442;9.212;2022-09-19T02:11:31;3.58;;;1.40;;
70169;SDS011;57543;45.442;9.212;2022-09-19T02:14:40;4.20;;;1.43;;
70169;SDS011;57543;45.442;9.212;2022-09-19T02:17:48;4.75;;;1.40;;
70169;SDS011;57543;45.442;9.212;2022-09-19T02:20:59;3.80;;;1.50;;
70169;SDS011;57543;45.442;9.212;2022-09-19T02:24:09;3.90;;;1.73;;
70169;SDS011;57543;45.442;9.212;2022-09-19T02:27:21;4.72;;;1.40;;
70169;SDS011;57543;45.442;9.212;2022-09-19T02:30:30;3.07;;;1.27;;
70169;SDS011;57543;45.442;9.212;2022-09-19T02:33:34;3.47;;;1.42;;
70169;SDS011;57543;45.442;9.212;2022-09-19T02:40:10;5.40;;;1.38;;
70169;SDS011;57543;45.442;9.212;2022-09-19T02:43:34;5.50;;;1.58;;
70169;SDS011;57543;45.442;9.212;2022-09-19T02:46:56;4.23;;;1.47;;
70169;SDS011;57543;45.442;9.212;2022-09-19T02:50:33;4.95;;;1.30;;
70169;SDS011;57543;45.442;9.212;2022-09-19T02:54:05;4.22;;;1.30;;
70169;SDS011;57543;45.442;9.212;2022-09-19T02:57:14;3.05;;;1.20;;
70169;SDS011;57543;45.442;9.212;2022-09-19T03:00:21;6.05;;;1.40;;
70169;SDS011;57543;45.442;9.212;2022-09-19T03:03:33;4.70;;;1.40;;
70169;SDS011;57543;45.442;9.212;2022-09-19T03:10:33;8.05;;;1.35;;
70169;SDS011;57543;45.442;9.212;2022-09-19T03:14:00;2.80;;;1.20;;
70169;SDS011;57543;45.442;9.212;2022-09-19T03:17:04;5.60;;;1.30;;
70169;SDS011;57543;45.442;9.212;2022-09-19T03:20:10;3.67;;;1.30;;
70169;SDS011;57543;45.442;9.212;2022-09-19T03:23:41;5.93;;;1.48;;
70169;SDS011;57543;45.442;9.212;2022-09-19T03:26:43;3.70;;;1.42;;
70169;SDS011;57543;45.442;9.212;2022-09-19T03:29:48;2.60;;;1.17;;
70169;SDS011;57543;45.442;9.212;2022-09-19T03:32:51;5.28;;;1.70;;
70169;SDS011;57543;45.442;9.212;2022-09-19T03:35:55;4.20;;;1.40;;
70169;SDS011;57543;45.442;9.212;2022-09-19T03:39:04;5.78;;;1.50;;
70169;SDS011;57543;45.442;9.212;2022-09-19T03:42:13;4.10;;;1.30;;
70169;SDS011;57543;45.442;9.212;2022-09-19T03:45:18;5.78;;;1.20;;
70169;SDS011;57543;45.442;9.212;2022-09-19T03:48:22;3.08;;;1.40;;
70169;SDS011;57543;45.442;9.212;2022-09-19T03:51:27;4.13;;;1.40;;
70169;SDS011;57543;45.442;9.212;2022-09-19T03:54:35;3.35;;;1.50;;
70169;SDS011;57543;45.442;9.212;2022-09-19T03:57:42;4.00;;;1.50;;
70169;SDS011;57543;45.442;9.212;2022-09-19T04:00:46;3.55;;;1.45;;
70169;SDS011;57543;45.442;9.212;2022-09-19T04:03:52;3.67;;;1.35;;
70169;SDS011;57543;45.442;9.212;2022-09-19T04:06:57;4.20;;;1.53;;
70169;SDS011;57543;45.442;9.212;2022-09-19T04:10:03;3.08;;;1.20;;
70169;SDS011;57543;45.442;9.212;2022-09-19T04:13:09;3.10;;;1.20;;
70169;SDS011;57543;45.442;9.212;2022-09-19T04:16:14;3.58;;;1.17;;
70169;SDS011;57543;45.442;9.212;2022-09-19T04:19:20;3.47;;;1.30;;
70169;SDS011;57543;45.442;9.212;2022-09-19T04:22:39;3.87;;;1.50;;
70169;SDS011;57543;45.442;9.212;2022-09-19T04:26:03;3.97;;;1.60;;
70169;SDS011;57543;45.442;9.212;2022-09-19T04:29:14;5.32;;;1.50;;
70169;SDS011;57543;45.442;9.212;2022-09-19T04:32:18;6.10;;;1.40;;
70169;SDS011;57543;45.442;9.212;2022-09-19T04:35:32;4.93;;;1.42;;
70169;SDS011;57543;45.442;9.212;2022-09-19T04:38:43;3.00;;;1.40;;
70169;SDS011;57543;45.442;9.212;2022-09-19T04:41:58;3.25;;;1.45;;
70169;SDS011;57543;45.442;9.212;2022-09-19T04:45:04;3.40;;;1.50;;
70169;SDS011;57543;45.442;9.212;2022-09-19T04:48:40;4.13;;;1.60;;
70169;SDS011;57543;45.442;9.212;2022-09-19T04:51:44;3.65;;;1.70;;
70169;SDS011;57543;45.442;9.212;2022-09-19T04:54:48;4.13;;;1.43;;
70169;SDS011;57543;45.442;9.212;2022-09-19T04:57:55;3.50;;;1.63;;
70169;SDS011;57543;45.442;9.212;2022-09-19T05:00:59;4.75;;;1.50;;
70169;SDS011;57543;45.442;9.212;2022-09-19T05:04:03;4.03;;;1.70;;
70169;SDS011;57543;45.442;9.212;2022-09-19T05:07:08;8.77;;;2.08;;
70169;SDS011;57543;45.442;9.212;2022-09-19T05:10:14;4.47;;;1.80;;
70169;SDS011;57543;45.442;9.212;2022-09-19T05:13:18;4.95;;;1.83;;
70169;SDS011;57543;45.442;9.212;2022-09-19T05:16:22;5.10;;;1.42;;
70169;SDS011;57543;45.442;9.212;2022-09-19T05:19:33;4.38;;;1.85;;
70169;SDS011;57543;45.442;9.212;2022-09-19T05:22:36;6.80;;;1.70;;
70169;SDS011;57543;45.442;9.212;2022-09-19T05:25:43;5.07;;;1.40;;
70169;SDS011;57543;45.442;9.212;2022-09-19T05:28:47;4.43;;;2.05;;
70169;SDS011;57543;45.442;9.212;2022-09-19T05:31:53;4.28;;;1.58;;
70169;SDS011;57543;45.442;9.212;2022-09-19T05:35:05;4.90;;;1.70;;
70169;SDS011;57543;45.442;9.212;2022-09-19T05:38:22;3.88;;;1.77;;
70169;SDS011;57543;45.442;9.212;2022-09-19T05:41:47;4.00;;;1.80;;
70169;SDS011;57543;45.442;9.212;2022-09-19T05:44:54;6.43;;;1.85;;
70169;SDS011;57543;45.442;9.212;2022-09-19T05:47:59;6.68;;;2.00;;
70169;SDS011;57543;45.442;9.212;2022-09-19T05:51:03;4.70;;;1.83;;
70169;SDS011;57543;45.442;9.212;2022-09-19T05:54:07;6.00;;;1.75;;
70169;SDS011;57543;45.442;9.212;2022-09-19T05:57:21;4.33;;;1.70;;
70169;SDS011;57543;45.442;9.212;2022-09-19T06:00:25;6.10;;;1.92;;
70169;SDS011;57543;45.442;9.212;2022-09-19T06:03:30;4.70;;;1.90;;
70169;SDS011;57543;45.442;9.212;2022-09-19T06:06:38;6.70;;;1.60;;
70169;SDS011;57543;45.442;9.212;2022-09-19T06:09:43;4.18;;;2.10;;
70169;SDS011;57543;45.442;9.212;2022-09-19T06:12:49;4.33;;;1.80;;
70169;SDS011;57543;45.442;9.212;2022-09-19T06:15:53;5.00;;;1.60;;
70169;SDS011;57543;45.442;9.212;2022-09-19T06:19:15;9.65;;;3.20;;
70169;SDS011;57543;45.442;9.212;2022-09-19T06:22:21;6.18;;;2.33;;
70169;SDS011;57543;45.442;9.212;2022-09-19T06:25:28;5.90;;;2.13;;
70169;SDS011;57543;45.442;9.212;2022-09-19T06:28:33;5.60;;;2.00;;
70169;SDS011;57543;45.442;9.212;2022-09-19T06:31:43;7.45;;;2.17;;
70169;SDS011;57543;45.442;9.212;2022-09-19T06:35:02;6.65;;;2.03;;
70169;SDS011;57543;45.442;9.212;2022-09-19T06:38:10;9.70;;;2.28;;
70169;SDS011;57543;45.442;9.212;2022-09-19T06:41:15;5.80;;;1.80;;
70169;SDS011;57543;45.442;9.212;2022-09-19T06:44:37;6.35;;;2.00;;
70169;SDS011;57543;45.442;9.212;2022-09-19T06:48:02;5.15;;;1.73;;
70169;SDS011;57543;45.442;9.212;2022-09-19T06:51:31;7.63;;;2.00;;
70169;SDS011;57543;45.442;9.212;2022-09-19T06:54:35;4.93;;;1.80;;
70169;SDS011;57543;45.442;9.212;2022-09-19T06:57:39;5.38;;;2.03;;
70169;SDS011;57543;45.442;9.212;2022-09-19T07:00:44;5.17;;;2.37;;
70169;SDS011;57543;45.442;9.212;2022-09-19T07:03:50;5.15;;;1.90;;
70169;SDS011;57543;45.442;9.212;2022-09-19T07:07:00;5.55;;;1.90;;
70169;SDS011;57543;45.442;9.212;2022-09-19T07:10:04;5.32;;;1.85;;
70169;SDS011;57543;45.442;9.212;2022-09-19T07:13:09;4.57;;;1.52;;
70169;SDS011;57543;45.442;9.212;2022-09-19T07:16:18;4.87;;;1.93;;
70169;SDS011;57543;45.442;9.212;2022-09-19T07:19:22;5.90;;;2.20;;
70169;SDS011;57543;45.442;9.212;2022-09-19T07:22:26;4.55;;;2.25;;
70169;SDS011;57543;45.442;9.212;2022-09-19T07:25:55;5.93;;;1.90;;
70169;SDS011;57543;45.442;9.212;2022-09-19T07:28:59;4.90;;;1.80;;
70169;SDS011;57543;45.442;9.212;2022-09-19T07:32:03;8.27;;;2.03;;
70169;SDS011;57543;45.442;9.212;2022-09-19T07:35:08;5.30;;;2.10;;
70169;SDS011;57543;45.442;9.212;2022-09-19T07:38:16;5.43;;;1.60;;
70169;SDS011;57543;45.442;9.212;2022-09-19T07:41:39;5.72;;;1.52;;
70169;SDS011;57543;45.442;9.212;2022-09-19T07:45:02;4.32;;;1.60;;
70169;SDS011;57543;45.442;9.212;2022-09-19T07:48:18;5.00;;;1.52;;
70169;SDS011;57543;45.442;9.212;2022-09-19T07:51:40;5.55;;;1.90;;
70169;SDS011;57543;45.442;9.212;2022-09-19T07:54:45;4.68;;;1.10;;
70169;SDS011;57543;45.442;9.212;2022-09-19T07:57:49;3.47;;;1.20;;
70169;SDS011;57543;45.442;9.212;2022-09-19T08:00:57;4.32;;;1.10;;
70169;SDS011;57543;45.442;9.212;2022-09-19T08:04:21;3.10;;;1.10;;
70169;SDS011;57543;45.442;9.212;2022-09-19T08:07:30;3.80;;;1.17;;
70169;SDS011;57543;45.442;9.212;2022-09-19T08:10:34;3.30;;;1.10;;
70169;SDS011;57543;45.442;9.212;2022-09-19T08:13:38;4.22;;;1.30;;
70169;SDS011;57543;45.442;9.212;2022-09-19T08:16:42;3.88;;;1.30;;
70169;SDS011;57543;45.442;9.212;2022-09-19T08:19:47;6.10;;;1.33;;
70169;SDS011;57543;45.442;9.212;2022-09-19T08:23:00;3.60;;;1.20;;
70169;SDS011;57543;45.442;9.212;2022-09-19T08:26:06;3.40;;;1.40;;
70169;SDS011;57543;45.442;9.212;2022-09-19T08:29:10;3.97;;;1.40;;
70169;SDS011;57543;45.442;9.212;2022-09-19T08:32:24;3.42;;;1.38;;
70169;SDS011;57543;45.442;9.212;2022-09-19T08:35:30;3.80;;;1.23;;
70169;SDS011;57543;45.442;9.212;2022-09-19T08:38:36;3.03;;;1.25;;
70169;SDS011;57543;45.442;9.212;2022-09-19T08:41:59;4.13;;;1.40;;
70169;SDS011;57543;45.442;9.212;2022-09-19T08:45:24;4.55;;;1.20;;
70169;SDS011;57543;45.442;9.212;2022-09-19T08:48:51;3.50;;;1.20;;
70169;SDS011;57543;45.442;9.212;2022-09-19T08:55:14;3.90;;;1.25;;
70169;SDS011;57543;45.442;9.212;2022-09-19T08:58:22;4.35;;;1.10;;
70169;SDS011;57543;45.442;9.212;2022-09-19T09:01:48;2.90;;;1.10;;
70169;SDS011;57543;45.442;9.212;2022-09-19T09:05:17;3.38;;;1.10;;
70169;SDS011;57543;45.442;9.212;2022-09-19T09:12:23;3.88;;;1.27;;
70169;SDS011;57543;45.442;9.212;2022-09-19T09:22:24;4.20;;;1.20;;
70169;SDS011;57543;45.442;9.212;2022-09-19T09:25:50;4.28;;;1.20;;
70169;SDS011;57543;45.442;9.212;2022-09-19T09:29:05;5.90;;;1.40;;
70169;SDS011;57543;45.442;9.212;2022-09-19T09:32:32;4.35;;;1.30;;
70169;SDS011;57543;45.442;9.212;2022-09-19T09:35:44;2.85;;;1.30;;
70169;SDS011;57543;45.442;9.212;2022-09-19T09:38:52;3.78;;;1.27;;
70169;SDS011;57543;45.442;9.212;2022-09-19T09:42:05;3.08;;;1.20;;
70169;SDS011;57543;45.442;9.212;2022-09-19T09:45:12;4.33;;;1.30;;
70169;SDS011;57543;45.442;9.212;2022-09-19T09:48:32;2.92;;;1.10;;
70169;SDS011;57543;45.442;9.212;2022-09-19T10:02:29;4.73;;;1.43;;
70169;SDS011;57543;45.442;9.212;2022-09-19T10:09:23;4.05;;;1.70;;
70169;SDS011;57543;45.442;9.212;2022-09-19T10:12:45;5.72;;;1.58;;
70169;SDS011;57543;45.442;9.212;2022-09-19T10:16:03;3.60;;;1.55;;
70169;SDS011;57543;45.442;9.212;2022-09-19T10:19:14;4.00;;;1.37;;
70169;SDS011;57543;45.442;9.212;2022-09-19T10:22:41;4.60;;;1.35;;
70169;SDS011;57543;45.442;9.212;2022-09-19T10:25:47;4.57;;;1.40;;
70169;SDS011;57543;45.442;9.212;2022-09-19T10:29:03;4.25;;;1.30;;
70169;SDS011;57543;45.442;9.212;2022-09-19T10:32:19;4.25;;;1.27;;
70169;SDS011;57543;45.442;9.212;2022-09-19T10:35:51;3.53;;;1.30;;
70169;SDS011;57543;45.442;9.212;2022-09-19T10:38:58;2.70;;;1.10;;
70169;SDS011;57543;45.442;9.212;2022-09-19T10:42:19;4.85;;;1.45;;
70169;SDS011;57543;45.442;9.212;2022-09-19T10:45:35;3.55;;;1.27;;
70169;SDS011;57543;45.442;9.212;2022-09-19T10:48:47;3.50;;;1.48;;
70169;SDS011;57543;45.442;9.212;2022-09-19T10:51:54;3.30;;;1.40;;
70169;SDS011;57543;45.442;9.212;2022-09-19T10:55:03;3.00;;;1.35;;
70169;SDS011;57543;45.442;9.212;2022-09-19T10:58:20;3.75;;;1.17;;
70169;SDS011;57543;45.442;9.212;2022-09-19T11:01:35;3.13;;;1.25;;
70169;SDS011;57543;45.442;9.212;2022-09-19T11:04:39;3.30;;;1.30;;
70169;SDS011;57543;45.442;9.212;2022-09-19T11:07:46;3.87;;;1.00;;
70169;SDS011;57543;45.442;9.212;2022-09-19T11:10:58;3.72;;;1.20;;
70169;SDS011;57543;45.442;9.212;2022-09-19T11:30:37;4.20;;;1.48;;
70169;SDS011;57543;45.442;9.212;2022-09-19T11:33:58;5.30;;;1.20;;
70169;SDS011;57543;45.442;9.212;2022-09-19T11:51:18;3.75;;;1.20;;
70169;SDS011;57543;45.442;9.212;2022-09-19T11:58:06;2.50;;;1.10;;
70169;SDS011;57543;45.442;9.212;2022-09-19T12:01:32;4.00;;;1.40;;
70169;SDS011;57543;45.442;9.212;2022-09-19T12:04:55;2.80;;;1.20;;
70169;SDS011;57543;45.442;9.212;2022-09-19T12:11:35;3.40;;;1.07;;
70169;SDS011;57543;45.442;9.212;2022-09-19T12:14:49;3.08;;;1.10;;
70169;SDS011;57543;45.442;9.212;2022-09-19T12:18:05;3.40;;;1.25;;
70169;SDS011;57543;45.442;9.212;2022-09-19T12:21:16;2.97;;;0.90;;
70169;SDS011;57543;45.442;9.212;2022-09-19T12:24:27;3.00;;;1.40;;
70169;SDS011;57543;45.442;9.212;2022-09-19T12:28:08;3.77;;;1.40;;
70169;SDS011;57543;45.442;9.212;2022-09-19T12:31:22;2.80;;;1.10;;
70169;SDS011;57543;45.442;9.212;2022-09-19T12:34:39;3.30;;;1.02;;
70169;SDS011;57543;45.442;9.212;2022-09-19T12:37:54;3.25;;;1.20;;
70169;SDS011;57543;45.442;9.212;2022-09-19T12:41:16;2.70;;;1.08;;
70169;SDS011;57543;45.442;9.212;2022-09-19T12:44:31;3.70;;;1.10;;
70169;SDS011;57543;45.442;9.212;2022-09-19T12:47:48;2.35;;;1.00;;
70169;SDS011;57543;45.442;9.212;2022-09-19T12:51:03;3.70;;;1.13;;
70169;SDS011;57543;45.442;9.212;2022-09-19T12:54:14;3.33;;;1.05;;
70169;SDS011;57543;45.442;9.212;2022-09-19T12:57:29;4.70;;;1.20;;
70169;SDS011;57543;45.442;9.212;2022-09-19T13:00:50;4.63;;;1.30;;
70169;SDS011;57543;45.442;9.212;2022-09-19T13:07:42;2.42;;;1.10;;
70169;SDS011;57543;45.442;9.212;2022-09-19T13:10:49;2.95;;;1.10;;
70169;SDS011;57543;45.442;9.212;2022-09-19T13:17:33;4.27;;;1.00;;
70169;SDS011;57543;45.442;9.212;2022-09-19T13:20:56;2.40;;;1.02;;
70169;SDS011;57543;45.442;9.212;2022-09-19T13:24:19;3.55;;;1.42;;
70169;SDS011;57543;45.442;9.212;2022-09-19T13:27:23;2.38;;;0.90;;
70169;SDS011;57543;45.442;9.212;2022-09-19T13:30:40;3.03;;;1.30;;
70169;SDS011;57543;45.442;9.212;2022-09-19T13:33:53;3.83;;;0.97;;
70169;SDS011;57543;45.442;9.212;2022-09-19T13:37:00;2.72;;;1.10;;
70169;SDS011;57543;45.442;9.212;2022-09-19T13:43:30;2.90;;;1.02;;
70169;SDS011;57543;45.442;9.212;2022-09-19T13:50:21;2.80;;;1.10;;
70169;SDS011;57543;45.442;9.212;2022-09-19T13:56:44;5.25;;;1.20;;
70169;SDS011;57543;45.442;9.212;2022-09-19T14:01:04;2.50;;;0.95;;
70169;SDS011;57543;45.442;9.212;2022-09-19T14:03:44;2.67;;;1.10;;
70169;SDS011;57543;45.442;9.212;2022-09-19T14:07:00;2.97;;;1.13;;
70169;SDS011;57543;45.442;9.212;2022-09-19T14:16:31;3.15;;;1.05;;
70169;SDS011;57543;45.442;9.212;2022-09-19T14:19:46;3.08;;;1.10;;
70169;SDS011;57543;45.442;9.212;2022-09-19T14:22:56;2.63;;;0.87;;
70169;SDS011;57543;45.442;9.212;2022-09-19T14:29:24;2.97;;;0.98;;
70169;SDS011;57543;45.442;9.212;2022-09-19T14:32:53;5.25;;;1.52;;
70169;SDS011;57543;45.442;9.212;2022-09-19T14:46:27;6.07;;;1.50;;
70169;SDS011;57543;45.442;9.212;2022-09-19T14:49:54;2.88;;;1.08;;
70169;SDS011;57543;45.442;9.212;2022-09-19T14:53:05;3.28;;;1.30;;
70169;SDS011;57543;45.442;9.212;2022-09-19T14:56:17;4.63;;;1.10;;
70169;SDS011;57543;45.442;9.212;2022-09-19T14:59:22;6.55;;;1.02;;
70169;SDS011;57543;45.442;9.212;2022-09-19T15:05:33;2.75;;;1.10;;
70169;SDS011;57543;45.442;9.212;2022-09-19T15:08:37;5.55;;;1.38;;
70169;SDS011;57543;45.442;9.212;2022-09-19T15:11:50;2.73;;;1.10;;
70169;SDS011;57543;45.442;9.212;2022-09-19T15:14:57;3.63;;;1.40;;
70169;SDS011;57543;45.442;9.212;2022-09-19T15:18:01;3.45;;;1.20;;
70169;SDS011;57543;45.442;9.212;2022-09-19T15:21:07;2.75;;;1.20;;
70169;SDS011;57543;45.442;9.212;2022-09-19T15:24:15;3.63;;;1.10;;
70169;SDS011;57543;45.442;9.212;2022-09-19T15:27:25;2.60;;;1.00;;
70169;SDS011;57543;45.442;9.212;2022-09-19T15:30:32;3.33;;;1.10;;
70169;SDS011;57543;45.442;9.212;2022-09-19T15:33:36;5.07;;;1.50;;
70169;SDS011;57543;45.442;9.212;2022-09-19T15:36:41;3.95;;;1.00;;
70169;SDS011;57543;45.442;9.212;2022-09-19T15:39:48;2.97;;;1.00;;
70169;SDS011;57543;45.442;9.212;2022-09-19T15:42:52;2.33;;;0.80;;
70169;SDS011;57543;45.442;9.212;2022-09-19T15:46:04;2.70;;;1.10;;
70169;SDS011;57543;45.442;9.212;2022-09-19T15:49:27;3.53;;;1.23;;
70169;SDS011;57543;45.442;9.212;2022-09-19T15:52:36;2.25;;;0.90;;
70169;SDS011;57543;45.442;9.212;2022-09-19T15:55:42;4.07;;;1.17;;
70169;SDS011;57543;45.442;9.212;2022-09-19T16:01:58;9.70;;;2.22;;
70169;SDS011;57543;45.442;9.212;2022-09-19T16:08:24;11.02;;;2.97;;
70169;SDS011;57543;45.442;9.212;2022-09-19T16:11:50;5.18;;;1.83;;
70169;SDS011;57543;45.442;9.212;2022-09-19T16:14:58;3.77;;;1.20;;
70169;SDS011;57543;45.442;9.212;2022-09-19T16:18:05;3.95;;;1.13;;
70169;SDS011;57543;45.442;9.212;2022-09-19T16:21:15;5.50;;;1.50;;
70169;SDS011;57543;45.442;9.212;2022-09-19T16:24:24;3.58;;;1.10;;
70169;SDS011;57543;45.442;9.212;2022-09-19T16:27:30;5.57;;;1.10;;
70169;SDS011;57543;45.442;9.212;2022-09-19T16:30:42;2.63;;;0.90;;
70169;SDS011;57543;45.442;9.212;2022-09-19T16:33:56;3.22;;;1.00;;
70169;SDS011;57543;45.442;9.212;2022-09-19T16:37:05;3.25;;;0.80;;
70169;SDS011;57543;45.442;9.212;2022-09-19T16:46:46;2.30;;;1.00;;
70169;SDS011;57543;45.442;9.212;2022-09-19T16:49:53;2.30;;;0.90;;
70169;SDS011;57543;45.442;9.212;2022-09-19T16:52:58;2.53;;;1.00;;
70169;SDS011;57543;45.442;9.212;2022-09-19T16:56:02;3.20;;;1.02;;
70169;SDS011;57543;45.442;9.212;2022-09-19T16:59:10;4.68;;;1.10;;
70169;SDS011;57543;45.442;9.212;2022-09-19T17:05:29;2.80;;;0.90;;
70169;SDS011;57543;45.442;9.212;2022-09-19T17:08:36;7.07;;;1.27;;
70169;SDS011;57543;45.442;9.212;2022-09-19T17:11:40;2.60;;;0.85;;
70169;SDS011;57543;45.442;9.212;2022-09-19T17:14:44;4.63;;;1.10;;
70169;SDS011;57543;45.442;9.212;2022-09-19T17:17:49;4.30;;;1.97;;
70169;SDS011;57543;45.442;9.212;2022-09-19T17:21:01;3.10;;;1.50;;
70169;SDS011;57543;45.442;9.212;2022-09-19T17:24:05;3.83;;;1.40;;
70169;SDS011;57543;45.442;9.212;2022-09-19T17:27:12;4.40;;;1.23;;
70169;SDS011;57543;45.442;9.212;2022-09-19T17:30:17;3.50;;;1.35;;
70169;SDS011;57543;45.442;9.212;2022-09-19T17:33:22;3.20;;;1.10;;
70169;SDS011;57543;45.442;9.212;2022-09-19T17:36:28;2.60;;;1.20;;
70169;SDS011;57543;45.442;9.212;2022-09-19T17:39:31;2.78;;;1.20;;
70169;SDS011;57543;45.442;9.212;2022-09-19T17:42:34;3.33;;;1.20;;
70169;SDS011;57543;45.442;9.212;2022-09-19T17:45:38;2.92;;;1.00;;
70169;SDS011;57543;45.442;9.212;2022-09-19T17:48:41;3.77;;;1.10;;
70169;SDS011;57543;45.442;9.212;2022-09-19T17:51:45;2.53;;;0.95;;
70169;SDS011;57543;45.442;9.212;2022-09-19T17:54:49;3.65;;;1.30;;
70169;SDS011;57543;45.442;9.212;2022-09-19T17:57:53;3.65;;;1.30;;
70169;SDS011;57543;45.442;9.212;2022-09-19T18:00:58;4.35;;;1.20;;
70169;SDS011;57543;45.442;9.212;2022-09-19T18:04:22;2.67;;;0.90;;
70169;SDS011;57543;45.442;9.212;2022-09-19T18:07:26;2.70;;;1.05;;
70169;SDS011;57543;45.442;9.212;2022-09-19T18:10:29;3.95;;;1.20;;
70169;SDS011;57543;45.442;9.212;2022-09-19T18:13:35;3.58;;;1.20;;
70169;SDS011;57543;45.442;9.212;2022-09-19T18:16:43;3.97;;;1.42;;
70169;SDS011;57543;45.442;9.212;2022-09-19T18:19:47;4.20;;;1.30;;
70169;SDS011;57543;45.442;9.212;2022-09-19T18:22:51;3.75;;;1.10;;
70169;SDS011;57543;45.442;9.212;2022-09-19T18:25:58;5.95;;;1.50;;
70169;SDS011;57543;45.442;9.212;2022-09-19T18:29:03;3.25;;;1.40;;
70169;SDS011;57543;45.442;9.212;2022-09-19T18:32:08;3.55;;;1.20;;
70169;SDS011;57543;45.442;9.212;2022-09-19T18:35:13;3.37;;;1.10;;
70169;SDS011;57543;45.442;9.212;2022-09-19T18:38:18;2.53;;;1.08;;
70169;SDS011;57543;45.442;9.212;2022-09-19T18:41:23;2.72;;;1.10;;
70169;SDS011;57543;45.442;9.212;2022-09-19T18:44:28;2.92;;;1.30;;
70169;SDS011;57543;45.442;9.212;2022-09-19T18:47:33;3.30;;;1.08;;
70169;SDS011;57543;45.442;9.212;2022-09-19T18:50:40;4.33;;;1.10;;
70169;SDS011;57543;45.442;9.212;2022-09-19T18:53:44;3.90;;;1.20;;
70169;SDS011;57543;45.442;9.212;2022-09-19T18:56:50;3.22;;;1.27;;
70169;SDS011;57543;45.442;9.212;2022-09-19T18:59:54;5.57;;;1.70;;
70169;SDS011;57543;45.442;9.212;2022-09-19T19:02:59;5.72;;;1.70;;
70169;SDS011;57543;45.442;9.212;2022-09-19T19:06:03;8.57;;;3.70;;
70169;SDS011;57543;45.442;9.212;2022-09-19T19:09:11;22.38;;;9.80;;
70169;SDS011;57543;45.442;9.212;2022-09-19T19:12:15;12.30;;;6.30;;
70169;SDS011;57543;45.442;9.212;2022-09-19T19:15:19;6.95;;;2.63;;
70169;SDS011;57543;45.442;9.212;2022-09-19T19:18:23;8.55;;;4.38;;
70169;SDS011;57543;45.442;9.212;2022-09-19T19:21:31;8.13;;;3.60;;
70169;SDS011;57543;45.442;9.212;2022-09-19T19:24:38;8.05;;;3.60;;
70169;SDS011;57543;45.442;9.212;2022-09-19T19:27:43;11.45;;;5.22;;
70169;SDS011;57543;45.442;9.212;2022-09-19T19:30:53;11.93;;;5.78;;
70169;SDS011;57543;45.442;9.212;2022-09-19T19:34:00;9.57;;;4.70;;
70169;SDS011;57543;45.442;9.212;2022-09-19T19:37:04;5.60;;;2.50;;
70169;SDS011;57543;45.442;9.212;2022-09-19T19:40:08;6.60;;;2.90;;
70169;SDS011;57543;45.442;9.212;2022-09-19T19:43:12;10.80;;;3.70;;
70169;SDS011;57543;45.442;9.212;2022-09-19T19:46:16;5.20;;;2.60;;
70169;SDS011;57543;45.442;9.212;2022-09-19T19:49:22;6.72;;;2.78;;
70169;SDS011;57543;45.442;9.212;2022-09-19T19:52:26;5.80;;;2.90;;
70169;SDS011;57543;45.442;9.212;2022-09-19T19:55:31;5.80;;;2.45;;
70169;SDS011;57543;45.442;9.212;2022-09-19T19:58:34;6.90;;;2.20;;
70169;SDS011;57543;45.442;9.212;2022-09-19T20:01:39;4.78;;;1.88;;
70169;SDS011;57543;45.442;9.212;2022-09-19T20:04:42;5.05;;;1.67;;
70169;SDS011;57543;45.442;9.212;2022-09-19T20:07:46;4.77;;;1.90;;
70169;SDS011;57543;45.442;9.212;2022-09-19T20:10:54;4.68;;;1.58;;
70169;SDS011;57543;45.442;9.212;2022-09-19T20:14:00;4.45;;;1.70;;
70169;SDS011;57543;45.442;9.212;2022-09-19T20:17:05;4.43;;;1.70;;
70169;SDS011;57543;45.442;9.212;2022-09-19T20:20:10;3.35;;;1.40;;
70169;SDS011;57543;45.442;9.212;2022-09-19T20:23:15;4.30;;;1.73;;
70169;SDS011;57543;45.442;9.212;2022-09-19T20:26:20;3.97;;;1.60;;
70169;SDS011;57543;45.442;9.212;2022-09-19T20:29:26;3.88;;;1.60;;
70169;SDS011;57543;45.442;9.212;2022-09-19T20:32:30;4.53;;;1.40;;
70169;SDS011;57543;45.442;9.212;2022-09-19T20:35:33;4.47;;;1.60;;
70169;SDS011;57543;45.442;9.212;2022-09-19T20:38:38;3.67;;;1.53;;
70169;SDS011;57543;45.442;9.212;2022-09-19T20:41:42;3.72;;;1.48;;
70169;SDS011;57543;45.442;9.212;2022-09-19T20:44:46;4.00;;;1.50;;
70169;SDS011;57543;45.442;9.212;2022-09-19T20:47:49;4.15;;;1.50;;
70169;SDS011;57543;45.442;9.212;2022-09-19T20:50:54;4.70;;;1.55;;
70169;SDS011;57543;45.442;9.212;2022-09-19T20:53:59;3.70;;;1.70;;
70169;SDS011;57543;45.442;9.212;2022-09-19T20:57:07;4.40;;;1.90;;
70169;SDS011;57543;45.442;9.212;2022-09-19T21:00:11;4.60;;;1.90;;
70169;SDS011;57543;45.442;9.212;2022-09-19T21:03:14;4.22;;;1.70;;
70169;SDS011;57543;45.442;9.212;2022-09-19T21:06:18;4.25;;;1.80;;
70169;SDS011;57543;45.442;9.212;2022-09-19T21:09:23;4.13;;;1.90;;
70169;SDS011;57543;45.442;9.212;2022-09-19T21:12:27;4.47;;;2.00;;
70169;SDS011;57543;45.442;9.212;2022-09-19T21:15:31;5.18;;;2.45;;
70169;SDS011;57543;45.442;9.212;2022-09-19T21:18:35;4.80;;;2.10;;
70169;SDS011;57543;45.442;9.212;2022-09-19T21:21:39;5.70;;;2.38;;
70169;SDS011;57543;45.442;9.212;2022-09-19T21:24:43;4.83;;;2.20;;
70169;SDS011;57543;45.442;9.212;2022-09-19T21:27:47;7.00;;;2.50;;
70169;SDS011;57543;45.442;9.212;2022-09-19T21:30:50;5.13;;;2.40;;
70169;SDS011;57543;45.442;9.212;2022-09-19T21:33:55;6.63;;;2.38;;
70169;SDS011;57543;45.442;9.212;2022-09-19T21:36:59;7.68;;;2.42;;